This is the latest recevied weather packets stored in our database for station/object KG5CK-1. If no packets are shown the sender has not sent any weather packets the latest 10 day(s).
| Time | Temp. | Humidity | Pressure | Rain* | Wind** | Luminosity | Snow |
|---|---|---|---|---|---|---|---|
| 1777860543 | 22.78° C | 45% | 1011.5 hPa | 0 mm | 1.34 m/s, 155° | - | - |
| 1777860482 | 22.78° C | 45% | 1011.5 hPa | 0 mm | 1.34 m/s, 155° | - | - |
| 1777860423 | 22.78° C | 45% | 1011.5 hPa | 0 mm | 1.34 m/s, 155° | - | - |
| 1777860362 | 22.78° C | 45% | 1011.5 hPa | 0 mm | 1.34 m/s, 155° | - | - |
| 1777860303 | 22.78° C | 45% | 1011.2 hPa | 0 mm | 2.68 m/s, 165° | - | - |
| 1777860243 | 22.78° C | 45% | 1011.2 hPa | 0 mm | 2.68 m/s, 165° | - | - |
| 1777860183 | 22.78° C | 45% | 1011.2 hPa | 0 mm | 2.68 m/s, 165° | - | - |
| 1777860123 | 22.78° C | 45% | 1011.2 hPa | 0 mm | 2.68 m/s, 165° | - | - |
| 1777860062 | 22.78° C | 45% | 1011.2 hPa | 0 mm | 2.68 m/s, 165° | - | - |
| 1777860003 | 22.78° C | 46% | 1011.5 hPa | 0 mm | 2.24 m/s, 179° | - | - |
| 1777859943 | 22.78° C | 46% | 1011.5 hPa | 0 mm | 2.24 m/s, 179° | - | - |
| 1777859882 | 22.78° C | 46% | 1011.5 hPa | 0 mm | 2.24 m/s, 179° | - | - |
| 1777859823 | 22.78° C | 46% | 1011.5 hPa | 0 mm | 2.24 m/s, 179° | - | - |
| 1777859763 | 22.78° C | 46% | 1011.5 hPa | 0 mm | 2.24 m/s, 179° | - | - |
| 1777859702 | 22.78° C | 46% | 1011.5 hPa | 0 mm | 0.45 m/s, 79° | - | - |
| 1777859642 | 22.78° C | 46% | 1011.5 hPa | 0 mm | 0.45 m/s, 79° | - | - |
| 1777859583 | 22.78° C | 46% | 1011.5 hPa | 0 mm | 0.45 m/s, 79° | - | - |
| 1777859523 | 22.78° C | 46% | 1011.5 hPa | 0 mm | 0.45 m/s, 79° | - | - |
| 1777859463 | 22.78° C | 46% | 1011.5 hPa | 0 mm | 0.45 m/s, 79° | - | - |
| 1777859403 | 23.33° C | 46% | 1011.4 hPa | 0 mm | 0.89 m/s, 121° | - | - |
| 1777859343 | 23.33° C | 46% | 1011.4 hPa | 0 mm | 0.89 m/s, 121° | - | - |
| 1777859282 | 23.33° C | 46% | 1011.4 hPa | 0 mm | 0.89 m/s, 121° | - | - |
| 1777859223 | 23.33° C | 46% | 1011.4 hPa | 0 mm | 0.89 m/s, 121° | - | - |
| 1777859162 | 23.33° C | 46% | 1011.4 hPa | 0 mm | 0.89 m/s, 121° | - | - |
| 1777859102 | 23.33° C | 45% | 1011.5 hPa | 0 mm | 0.45 m/s, 150° | - | - |
* Rain latest hour (hover to see other rain measurements)
** Current wind speed in m/s (hover to see current wind gust speed)